createdAt,value
2023-02-06T04:01:37.479Z,8.73
2023-02-06T04:04:12.572Z,7.03
2023-02-06T04:06:47.593Z,6.50
2023-02-06T04:09:22.635Z,6.07
2023-02-06T04:11:57.507Z,6.03
2023-02-06T04:14:32.462Z,5.95
2023-02-06T04:17:10.517Z,6.65
2023-02-06T04:19:45.683Z,5.38
2023-02-06T04:22:20.603Z,5.53
2023-02-06T04:24:55.549Z,5.63
2023-02-06T04:27:30.741Z,5.60
2023-02-06T04:30:06.631Z,5.93
2023-02-06T04:32:44.466Z,6.22
2023-02-06T04:35:19.770Z,5.90
2023-02-06T04:37:54.782Z,5.78
2023-02-06T04:40:29.892Z,5.38
2023-02-06T04:43:04.944Z,5.75
2023-02-06T04:45:41.958Z,5.47
2023-02-06T04:48:20.154Z,5.63
2023-02-06T04:50:55.573Z,6.40
2023-02-06T04:53:30.595Z,6.72
2023-02-06T04:56:06.706Z,5.95
2023-02-06T04:58:42.377Z,6.38
2023-02-06T05:01:17.944Z,5.63
2023-02-06T05:03:58.206Z,5.88
2023-02-06T05:06:33.160Z,5.82
2023-02-06T05:09:09.888Z,6.07
2023-02-06T05:11:44.964Z,6.45
2023-02-06T05:14:19.866Z,7.50
2023-02-06T05:16:54.803Z,7.07
2023-02-06T05:19:32.401Z,6.47
2023-02-06T05:22:07.588Z,6.72
2023-02-06T05:24:42.602Z,6.15
2023-02-06T05:27:17.629Z,6.45
2023-02-06T05:29:52.571Z,6.53
2023-02-06T05:32:27.611Z,6.25
2023-02-06T05:35:05.273Z,6.18
2023-02-06T05:37:40.702Z,6.00
2023-02-06T05:40:16.087Z,6.25
2023-02-06T05:42:51.031Z,6.05
2023-02-06T05:45:26.117Z,6.32
2023-02-06T05:48:01.011Z,6.38
2023-02-06T05:50:38.597Z,6.72
2023-02-06T05:53:22.855Z,6.47
2023-02-06T05:55:58.274Z,6.78
2023-02-06T05:58:33.649Z,6.38
2023-02-06T06:01:08.682Z,5.93
2023-02-06T06:03:43.807Z,6.47
2023-02-06T06:06:21.692Z,7.25
2023-02-06T06:08:56.749Z,6.95
2023-02-06T06:11:33.538Z,7.25
2023-02-06T06:14:08.665Z,6.85
2023-02-06T06:16:43.667Z,6.90
2023-02-06T06:19:20.205Z,6.97
2023-02-06T06:21:58.403Z,7.70
2023-02-06T06:24:33.396Z,6.95
2023-02-06T06:27:10.687Z,6.75
2023-02-06T06:29:45.635Z,7.93
2023-02-06T06:32:20.682Z,7.68
2023-02-06T06:34:55.668Z,8.48
2023-02-06T06:37:33.347Z,8.05
2023-02-06T06:40:09.184Z,7.88
2023-02-06T06:42:44.338Z,8.50
2023-02-06T06:45:19.525Z,10.00
2023-02-06T06:47:54.448Z,11.38
2023-02-06T06:50:29.492Z,9.52
2023-02-06T06:53:07.142Z,12.65
2023-02-06T06:55:42.097Z,12.25
2023-02-06T06:58:17.312Z,14.38
2023-02-06T07:00:52.517Z,12.60
2023-02-06T07:03:27.591Z,13.07
2023-02-06T07:06:02.682Z,9.73
2023-02-06T07:08:42.348Z,9.23
2023-02-06T07:11:18.747Z,9.40
2023-02-06T07:13:53.784Z,9.43
2023-02-06T07:16:29.046Z,9.02
2023-02-06T07:19:04.125Z,8.82
2023-02-06T07:21:39.363Z,9.27
2023-02-06T07:24:16.847Z,9.57
2023-02-06T07:26:51.760Z,10.32
2023-02-06T07:29:27.108Z,9.35
2023-02-06T07:32:02.180Z,10.60
2023-02-06T07:34:37.607Z,9.75
2023-02-06T07:37:12.717Z,9.95
2023-02-06T07:39:50.199Z,9.30
2023-02-06T07:42:25.161Z,9.00
2023-02-06T07:45:04.748Z,9.45
2023-02-06T07:47:39.753Z,9.25
2023-02-06T07:50:14.866Z,9.43
2023-02-06T07:52:49.810Z,9.77
2023-02-06T07:55:27.308Z,9.15
2023-02-06T07:58:02.361Z,9.35
2023-02-06T08:00:37.255Z,8.65
2023-02-06T08:03:12.869Z,9.05
2023-02-06T08:05:47.819Z,10.27
2023-02-06T08:08:22.936Z,11.20
2023-02-06T08:11:00.522Z,14.98
2023-02-06T08:13:35.438Z,13.35
2023-02-06T08:16:13.018Z,12.48
2023-02-06T08:18:48.492Z,10.90
2023-02-06T08:21:25.249Z,10.77
2023-02-06T08:24:03.273Z,10.75
2023-02-06T08:26:41.140Z,10.32
2023-02-06T08:29:16.725Z,10.15
2023-02-06T08:31:51.858Z,9.43
2023-02-06T08:34:26.877Z,9.95
2023-02-06T08:37:02.011Z,10.98
2023-02-06T08:39:38.193Z,9.43
2023-02-06T08:42:15.762Z,10.23
2023-02-06T08:44:52.408Z,8.77
2023-02-06T08:47:27.592Z,9.10
2023-02-06T08:50:03.725Z,10.18
2023-02-06T08:52:40.364Z,10.02
2023-02-06T08:55:15.480Z,9.38
2023-02-06T08:57:52.926Z,9.80
2023-02-06T09:00:28.395Z,10.38
2023-02-06T09:03:03.334Z,11.40
2023-02-06T09:05:38.473Z,10.32
2023-02-06T09:08:13.469Z,10.90
2023-02-06T09:10:48.563Z,10.93
2023-02-06T09:13:26.292Z,10.82
2023-02-06T09:16:01.352Z,10.48
2023-02-06T09:18:36.734Z,10.32
2023-02-06T09:21:14.789Z,11.25
2023-02-06T09:23:51.289Z,11.40
2023-02-06T09:26:28.394Z,10.77
2023-02-06T09:29:08.434Z,9.63
2023-02-06T09:31:45.748Z,10.43
2023-02-06T09:34:20.959Z,9.88
2023-02-06T09:36:58.092Z,10.27
2023-02-06T09:39:34.293Z,10.48
2023-02-06T09:42:14.765Z,11.77
2023-02-06T09:44:58.108Z,10.80
2023-02-06T09:47:35.613Z,11.40
2023-02-06T09:50:24.156Z,11.25
2023-02-06T09:53:10.364Z,11.85
2023-02-06T09:55:47.134Z,11.30
2023-02-06T09:58:29.553Z,11.40
2023-02-06T10:01:13.784Z,11.75
2023-02-06T10:04:12.558Z,11.50
2023-02-06T10:06:54.134Z,11.60
2023-02-06T10:09:35.997Z,11.98
2023-02-06T10:12:17.447Z,11.73
2023-02-06T10:14:58.698Z,12.13
2023-02-06T10:17:39.876Z,12.60
2023-02-06T10:20:20.563Z,12.98
2023-02-06T10:23:06.653Z,13.52
2023-02-06T10:25:48.684Z,12.68
2023-02-06T10:28:27.527Z,12.65
2023-02-06T10:31:20.038Z,13.48
2023-02-06T10:34:16.358Z,13.30
2023-02-06T10:37:04.170Z,13.07
2023-02-06T10:40:00.660Z,13.70
2023-02-06T10:42:49.480Z,13.98
2023-02-06T10:45:39.182Z,14.75
2023-02-06T10:48:24.128Z,15.18
2023-02-06T10:51:11.935Z,13.57
2023-02-06T10:53:53.677Z,15.02
2023-02-06T10:56:32.114Z,15.00
2023-02-06T10:59:13.507Z,16.02
2023-02-06T11:01:50.806Z,15.93
2023-02-06T11:04:32.289Z,14.98
2023-02-06T11:07:15.693Z,23.45
2023-02-06T11:09:53.548Z,17.27
2023-02-06T11:12:36.294Z,21.05
2023-02-06T11:15:23.066Z,19.75
2023-02-06T11:17:59.148Z,18.92
2023-02-06T11:20:37.089Z,18.25
2023-02-06T11:23:24.394Z,19.30
2023-02-06T11:26:14.359Z,15.00
2023-02-06T11:28:54.864Z,15.40
2023-02-06T11:31:46.388Z,15.15
2023-02-06T11:34:27.860Z,18.58
2023-02-06T11:37:04.745Z,23.75
2023-02-06T11:39:42.664Z,20.95
2023-02-06T11:42:23.648Z,17.00
2023-02-06T11:44:58.631Z,16.50
2023-02-06T11:47:37.604Z,17.25
2023-02-06T11:50:28.447Z,17.02
2023-02-06T11:53:12.398Z,17.20
2023-02-06T11:56:01.831Z,16.83
2023-02-06T11:58:37.217Z,18.90
2023-02-06T12:01:21.461Z,18.55
2023-02-06T12:03:59.649Z,16.88
2023-02-06T12:06:38.354Z,16.95
2023-02-06T12:09:15.665Z,17.42
2023-02-06T12:11:58.901Z,17.27
2023-02-06T12:14:40.012Z,17.20
2023-02-06T12:17:25.937Z,16.50
2023-02-06T12:20:07.717Z,17.50
2023-02-06T12:22:45.437Z,15.57
2023-02-06T12:25:39.643Z,15.40
2023-02-06T12:28:21.502Z,14.93
2023-02-06T12:31:00.576Z,13.93
2023-02-06T12:33:47.042Z,14.30
2023-02-06T12:36:36.945Z,14.23
2023-02-06T12:39:24.104Z,14.38
2023-02-06T12:42:23.310Z,14.60
2023-02-06T12:45:07.665Z,14.52
2023-02-06T12:47:49.100Z,15.07
2023-02-06T12:50:29.504Z,14.45
2023-02-06T12:53:10.802Z,16.00
2023-02-06T12:55:51.645Z,16.10
2023-02-06T12:58:32.069Z,15.38
2023-02-06T13:01:31.648Z,15.38
2023-02-06T13:04:16.407Z,15.93
2023-02-06T13:06:55.214Z,15.90
2023-02-06T13:09:36.222Z,14.80
2023-02-06T13:12:18.895Z,15.27
2023-02-06T13:14:59.646Z,14.80
2023-02-06T13:17:40.470Z,15.20
2023-02-06T13:20:17.327Z,14.60
2023-02-06T13:22:54.382Z,16.08
2023-02-06T19:17:44.456Z,19.65
2023-02-06T19:20:26.882Z,18.02
2023-02-06T19:23:03.719Z,19.50
2023-02-06T19:25:39.643Z,18.27
2023-02-06T19:28:17.865Z,19.58
2023-02-06T19:30:54.113Z,19.27
2023-02-06T19:33:35.263Z,18.58
2023-02-06T19:36:13.346Z,20.05
2023-02-06T19:38:48.881Z,20.15
2023-02-06T19:41:26.912Z,19.67
2023-02-06T19:44:06.179Z,19.48
2023-02-06T19:46:42.997Z,21.40
2023-02-06T19:49:21.005Z,24.80
2023-02-06T19:52:00.926Z,22.35
2023-02-06T19:54:37.330Z,22.95
2023-02-06T19:57:32.957Z,22.88
2023-02-06T20:00:19.773Z,21.98
2023-02-06T20:02:59.465Z,22.17
2023-02-06T20:05:42.691Z,22.65
2023-02-06T20:08:22.305Z,21.23
2023-02-06T20:10:58.305Z,21.35
2023-02-06T20:13:34.171Z,21.10
2023-02-06T20:16:18.094Z,20.75
2023-02-06T20:18:54.149Z,21.38
2023-02-06T20:21:39.601Z,21.10
2023-02-06T20:24:21.044Z,21.83
2023-02-06T20:26:59.313Z,21.15
2023-02-06T20:29:43.673Z,21.92
2023-02-06T20:32:22.969Z,22.25
2023-02-06T20:34:59.831Z,19.75
2023-02-06T20:37:38.649Z,20.02
2023-02-06T20:40:14.467Z,21.75
2023-02-06T20:42:54.565Z,20.75
2023-02-06T20:45:44.770Z,21.77
2023-02-06T20:48:20.524Z,20.60
2023-02-06T20:51:00.090Z,21.30
2023-02-06T20:53:48.668Z,22.30
2023-02-06T20:56:25.869Z,21.17
2023-02-06T20:59:14.791Z,20.83
2023-02-06T21:01:53.439Z,21.13
2023-02-06T21:04:29.229Z,20.70
2023-02-06T21:07:04.443Z,19.98
2023-02-06T21:09:42.450Z,21.30
2023-02-06T21:12:17.898Z,23.60
2023-02-06T21:14:53.229Z,21.80
2023-02-06T21:17:28.811Z,21.80
2023-02-06T21:20:08.276Z,21.05
2023-02-06T21:22:43.817Z,19.73
2023-02-06T21:25:22.556Z,20.27
2023-02-06T21:27:58.628Z,19.13
2023-02-06T21:30:35.534Z,19.35
2023-02-06T21:33:11.041Z,19.83
2023-02-06T21:35:52.505Z,19.55
2023-02-06T21:38:28.053Z,19.25
2023-02-06T21:41:10.264Z,19.70
2023-02-06T21:43:46.114Z,18.75
2023-02-06T21:46:21.612Z,20.00
2023-02-06T21:48:57.569Z,18.73
2023-02-06T21:51:33.082Z,20.33
2023-02-06T21:54:08.731Z,20.70
2023-02-06T21:56:47.188Z,19.27
2023-02-06T21:59:22.505Z,18.13
2023-02-06T22:01:58.854Z,20.33
2023-02-06T22:04:34.432Z,19.17
2023-02-06T22:07:13.433Z,18.45
2023-02-06T22:09:49.209Z,18.63
2023-02-06T22:12:27.269Z,18.33
2023-02-06T22:15:06.987Z,18.40
2023-02-06T22:17:42.235Z,19.17
2023-02-06T22:20:18.108Z,18.92
2023-02-06T22:22:53.596Z,19.20
2023-02-06T22:25:29.044Z,17.90
2023-02-06T22:28:10.001Z,17.05
2023-02-06T22:30:45.300Z,16.50
2023-02-06T22:33:21.142Z,17.90
2023-02-06T22:35:57.809Z,18.15
2023-02-06T22:38:33.269Z,18.45
2023-02-06T22:41:11.262Z,19.58
2023-02-06T22:43:53.505Z,18.38
2023-02-06T22:46:31.231Z,17.63
2023-02-06T22:49:08.847Z,15.50
2023-02-06T22:51:45.573Z,16.10
2023-02-06T22:54:21.793Z,16.55
2023-02-06T22:56:57.394Z,16.17
2023-02-06T22:59:38.979Z,14.65
2023-02-06T23:02:14.264Z,16.48
2023-02-06T23:04:49.536Z,15.90
2023-02-06T23:07:24.982Z,15.93
2023-02-06T23:10:00.208Z,15.82
2023-02-06T23:12:35.387Z,16.23
2023-02-06T23:15:13.881Z,15.68
2023-02-06T23:17:49.836Z,17.02
2023-02-06T23:20:25.067Z,16.02
2023-02-06T23:23:00.219Z,16.08
2023-02-06T23:25:36.273Z,15.60
2023-02-06T23:28:12.053Z,15.68
2023-02-06T23:30:50.937Z,16.42
2023-02-06T23:33:26.658Z,17.52
2023-02-06T23:36:07.251Z,15.00
2023-02-06T23:38:43.446Z,16.15
2023-02-06T23:41:21.197Z,16.38
2023-02-06T23:43:58.127Z,15.68
2023-02-06T23:46:40.458Z,15.98
2023-02-06T23:49:16.944Z,15.70
2023-02-06T23:51:57.069Z,16.38
2023-02-06T23:54:32.485Z,15.18
2023-02-06T23:57:07.907Z,15.65
2023-02-06T23:59:43.324Z,15.52
